Wetterverlauf

Letzte Wetterlage 17.09.2014 07:03
Wetterdiagramm
Tabellarische Darstellung
Datum Temperatur Windchill Feuchte Luftdruck Windrichtung Windstärke Niederschlag
17.09.2014 07:23 10,4 °C 10,4 °C 93 % 1013,4 hPa 0,00 mm
17.09.2014 07:03 10,4 °C 10,4 °C 93 % 1013,4 hPa 0,00 mm
17.09.2014 06:42 10,5 °C 10,5 °C 93 % 1013,4 hPa 0,00 mm
17.09.2014 06:21 10,5 °C 10,5 °C 92 % 1013,4 hPa 0,00 mm
17.09.2014 06:01 10,6 °C 10,6 °C 92 % 1013,4 hPa 0,00 mm
17.09.2014 05:40 10,8 °C 10,8 °C 93 % 1013,4 hPa 0,00 mm
17.09.2014 05:19 10,8 °C 10,8 °C 93 % 1013,4 hPa 0,00 mm
17.09.2014 04:59 10,8 °C 10,8 °C 93 % 1013,4 hPa 0,00 mm
17.09.2014 04:38 11,0 °C 11,0 °C 93 % 1013,4 hPa 0,00 mm
17.09.2014 04:18 11,1 °C 11,1 °C 92 % 1014,4 hPa 0,00 mm
17.09.2014 03:57 11,2 °C 11,2 °C 92 % 1014,4 hPa 0,00 mm
17.09.2014 03:36 11,4 °C 11,4 °C 92 % 1014,4 hPa 0,00 mm
17.09.2014 03:15 11,5 °C 11,5 °C 92 % 1014,4 hPa 0,00 mm
17.09.2014 02:54 11,8 °C 11,8 °C 92 % 1014,4 hPa 0,00 mm
17.09.2014 02:34 12,0 °C 12,0 °C 92 % 1014,4 hPa 0,00 mm
17.09.2014 02:13 12,0 °C 12,0 °C 92 % 1014,4 hPa 0,00 mm
17.09.2014 01:52 12,2 °C 12,2 °C 92 % 1014,4 hPa 0,00 mm
17.09.2014 01:32 12,4 °C 12,4 °C 91 % 1014,4 hPa 0,00 mm
17.09.2014 01:11 12,4 °C 12,4 °C 91 % 1014,4 hPa 0,00 mm
17.09.2014 00:50 12,8 °C 12,8 °C 91 % 1014,4 hPa 0,00 mm
17.09.2014 00:30 12,8 °C 12,8 °C 91 % 1014,4 hPa 0,00 mm
17.09.2014 00:09 13,1 °C 13,1 °C 91 % 1014,4 hPa 0,00 mm
Empfehlen Sie wetter.com
| Mehr
Neue Wetterwarnung

Neue Niederschlagsmeldung
Neue Meldung
Regen Liveticker
    sehr starker Regen/Gewitter
    starker Regen/Gewitter
    mäßiger bis starker Regen
    mäßiger Regen
    leichter bis mäßiger Regen
    kein Regen